sensor_id;sensor_type;location;lat;lon;timestamp;temperature;humidity
48744;DHT22;34538;48.836;9.174;2022-07-04T00:00:56;21.30;99.90
48744;DHT22;34538;48.836;9.174;2022-07-04T00:03:21;21.30;99.90
48744;DHT22;34538;48.836;9.174;2022-07-04T00:05:47;21.30;99.90
48744;DHT22;34538;48.836;9.174;2022-07-04T00:08:13;21.30;99.90
48744;DHT22;34538;48.836;9.174;2022-07-04T00:10:38;21.30;99.90
48744;DHT22;34538;48.836;9.174;2022-07-04T00:13:04;21.30;99.80
48744;DHT22;34538;48.836;9.174;2022-07-04T00:15:31;21.30;99.90
48744;DHT22;34538;48.836;9.174;2022-07-04T00:17:56;21.30;99.80
48744;DHT22;34538;48.836;9.174;2022-07-04T00:20:22;21.30;99.90
48744;DHT22;34538;48.836;9.174;2022-07-04T00:22:48;21.20;99.70
48744;DHT22;34538;48.836;9.174;2022-07-04T00:25:13;21.20;99.80
48744;DHT22;34538;48.836;9.174;2022-07-04T00:27:39;21.20;99.70
48744;DHT22;34538;48.836;9.174;2022-07-04T00:30:05;21.20;99.90
48744;DHT22;34538;48.836;9.174;2022-07-04T00:32:31;21.10;99.90
48744;DHT22;34538;48.836;9.174;2022-07-04T00:34:57;21.10;99.80
48744;DHT22;34538;48.836;9.174;2022-07-04T00:37:22;21.10;99.80
48744;DHT22;34538;48.836;9.174;2022-07-04T00:39:48;21.10;99.90
48744;DHT22;34538;48.836;9.174;2022-07-04T00:42:14;21.10;99.90
48744;DHT22;34538;48.836;9.174;2022-07-04T00:44:39;21.00;99.90
48744;DHT22;34538;48.836;9.174;2022-07-04T00:47:06;21.00;99.90
48744;DHT22;34538;48.836;9.174;2022-07-04T00:49:32;21.00;99.90
48744;DHT22;34538;48.836;9.174;2022-07-04T00:51:58;21.00;99.90
48744;DHT22;34538;48.836;9.174;2022-07-04T00:54:27;20.90;99.90
48744;DHT22;34538;48.836;9.174;2022-07-04T00:56:55;20.90;99.90
48744;DHT22;34538;48.836;9.174;2022-07-04T00:59:21;20.90;99.90
48744;DHT22;34538;48.836;9.174;2022-07-04T01:01:48;20.90;99.90
48744;DHT22;34538;48.836;9.174;2022-07-04T01:04:14;20.80;99.90
48744;DHT22;34538;48.836;9.174;2022-07-04T01:06:40;20.80;99.90
48744;DHT22;34538;48.836;9.174;2022-07-04T01:09:06;20.80;99.90
48744;DHT22;34538;48.836;9.174;2022-07-04T01:11:31;20.70;99.90
48744;DHT22;34538;48.836;9.174;2022-07-04T01:13:58;20.70;99.90
48744;DHT22;34538;48.836;9.174;2022-07-04T01:16:25;20.70;99.90
48744;DHT22;34538;48.836;9.174;2022-07-04T01:18:52;20.60;99.90
48744;DHT22;34538;48.836;9.174;2022-07-04T01:21:18;20.60;99.90
48744;DHT22;34538;48.836;9.174;2022-07-04T01:23:44;20.50;99.90
48744;DHT22;34538;48.836;9.174;2022-07-04T01:26:10;20.50;99.90
48744;DHT22;34538;48.836;9.174;2022-07-04T01:28:37;20.40;99.90
48744;DHT22;34538;48.836;9.174;2022-07-04T01:31:04;20.40;99.90
48744;DHT22;34538;48.836;9.174;2022-07-04T01:33:29;20.40;99.90
48744;DHT22;34538;48.836;9.174;2022-07-04T01:35:55;20.30;99.90
48744;DHT22;34538;48.836;9.174;2022-07-04T01:38:21;20.20;99.90
48744;DHT22;34538;48.836;9.174;2022-07-04T01:40:47;20.20;99.90
48744;DHT22;34538;48.836;9.174;2022-07-04T01:43:13;20.20;99.90
48744;DHT22;34538;48.836;9.174;2022-07-04T01:45:38;20.20;99.90
48744;DHT22;34538;48.836;9.174;2022-07-04T01:48:09;20.20;99.90
48744;DHT22;34538;48.836;9.174;2022-07-04T01:50:35;20.10;99.90
48744;DHT22;34538;48.836;9.174;2022-07-04T01:53:01;20.10;99.90
48744;DHT22;34538;48.836;9.174;2022-07-04T01:55:28;20.10;99.90
48744;DHT22;34538;48.836;9.174;2022-07-04T01:57:53;20.00;99.90
48744;DHT22;34538;48.836;9.174;2022-07-04T02:00:19;20.00;99.90
48744;DHT22;34538;48.836;9.174;2022-07-04T02:03:03;20.00;99.90
48744;DHT22;34538;48.836;9.174;2022-07-04T02:05:29;20.00;99.90
48744;DHT22;34538;48.836;9.174;2022-07-04T02:07:55;19.90;99.90
48744;DHT22;34538;48.836;9.174;2022-07-04T02:10:21;19.90;99.90
48744;DHT22;34538;48.836;9.174;2022-07-04T02:12:47;19.90;99.90
48744;DHT22;34538;48.836;9.174;2022-07-04T02:15:41;19.90;99.90
48744;DHT22;34538;48.836;9.174;2022-07-04T02:18:09;19.90;99.90
48744;DHT22;34538;48.836;9.174;2022-07-04T02:20:36;19.80;99.90
48744;DHT22;34538;48.836;9.174;2022-07-04T02:23:02;19.80;99.90
48744;DHT22;34538;48.836;9.174;2022-07-04T02:25:28;19.80;99.90
48744;DHT22;34538;48.836;9.174;2022-07-04T02:27:55;19.70;99.90
48744;DHT22;34538;48.836;9.174;2022-07-04T02:30:21;19.70;99.90
48744;DHT22;34538;48.836;9.174;2022-07-04T02:32:47;19.60;99.90
48744;DHT22;34538;48.836;9.174;2022-07-04T02:35:12;19.60;99.90
48744;DHT22;34538;48.836;9.174;2022-07-04T02:37:38;19.60;99.90
48744;DHT22;34538;48.836;9.174;2022-07-04T02:40:05;19.50;99.90
48744;DHT22;34538;48.836;9.174;2022-07-04T02:42:32;19.50;99.90
48744;DHT22;34538;48.836;9.174;2022-07-04T02:44:58;19.50;99.90
48744;DHT22;34538;48.836;9.174;2022-07-04T02:47:24;19.50;99.90
48744;DHT22;34538;48.836;9.174;2022-07-04T02:49:50;19.40;99.90
48744;DHT22;34538;48.836;9.174;2022-07-04T02:52:15;19.40;99.90
48744;DHT22;34538;48.836;9.174;2022-07-04T02:54:41;19.30;99.90
48744;DHT22;34538;48.836;9.174;2022-07-04T02:57:07;19.30;99.90
48744;DHT22;34538;48.836;9.174;2022-07-04T02:59:33;19.30;99.90
48744;DHT22;34538;48.836;9.174;2022-07-04T03:01:59;19.30;99.90
48744;DHT22;34538;48.836;9.174;2022-07-04T03:04:25;19.20;99.90
48744;DHT22;34538;48.836;9.174;2022-07-04T03:06:50;19.20;99.90
48744;DHT22;34538;48.836;9.174;2022-07-04T03:09:16;19.20;99.90
48744;DHT22;34538;48.836;9.174;2022-07-04T03:11:43;19.20;99.90
48744;DHT22;34538;48.836;9.174;2022-07-04T03:14:09;19.10;99.90
48744;DHT22;34538;48.836;9.174;2022-07-04T03:16:35;19.10;99.90
48744;DHT22;34538;48.836;9.174;2022-07-04T03:19:00;19.10;99.90
48744;DHT22;34538;48.836;9.174;2022-07-04T03:21:26;19.00;99.90
48744;DHT22;34538;48.836;9.174;2022-07-04T03:23:52;19.00;99.90
48744;DHT22;34538;48.836;9.174;2022-07-04T03:26:28;19.00;99.90
48744;DHT22;34538;48.836;9.174;2022-07-04T03:28:55;19.00;99.90
48744;DHT22;34538;48.836;9.174;2022-07-04T03:31:21;18.90;99.90
48744;DHT22;34538;48.836;9.174;2022-07-04T03:33:47;18.80;99.90
48744;DHT22;34538;48.836;9.174;2022-07-04T03:36:13;18.80;99.90
48744;DHT22;34538;48.836;9.174;2022-07-04T03:38:38;18.80;99.90
48744;DHT22;34538;48.836;9.174;2022-07-04T03:41:04;18.80;99.90
48744;DHT22;34538;48.836;9.174;2022-07-04T03:43:29;18.70;99.90
48744;DHT22;34538;48.836;9.174;2022-07-04T03:45:55;18.70;99.90
48744;DHT22;34538;48.836;9.174;2022-07-04T03:48:21;18.70;99.90
48744;DHT22;34538;48.836;9.174;2022-07-04T03:50:46;18.60;99.90
48744;DHT22;34538;48.836;9.174;2022-07-04T03:53:12;18.60;99.90
48744;DHT22;34538;48.836;9.174;2022-07-04T03:55:38;18.60;99.90
48744;DHT22;34538;48.836;9.174;2022-07-04T03:58:05;18.60;99.90
48744;DHT22;34538;48.836;9.174;2022-07-04T04:00:31;18.60;99.90
48744;DHT22;34538;48.836;9.174;2022-07-04T04:02:57;18.60;99.90
48744;DHT22;34538;48.836;9.174;2022-07-04T04:05:23;18.60;99.90
48744;DHT22;34538;48.836;9.174;2022-07-04T04:07:56;18.50;99.90
48744;DHT22;34538;48.836;9.174;2022-07-04T04:10:23;18.50;99.90
48744;DHT22;34538;48.836;9.174;2022-07-04T04:12:49;18.50;99.90
48744;DHT22;34538;48.836;9.174;2022-07-04T04:15:16;18.50;99.90
48744;DHT22;34538;48.836;9.174;2022-07-04T04:17:42;18.50;99.90
48744;DHT22;34538;48.836;9.174;2022-07-04T04:20:08;18.50;99.90
48744;DHT22;34538;48.836;9.174;2022-07-04T04:22:34;18.50;99.90
48744;DHT22;34538;48.836;9.174;2022-07-04T04:25:00;18.50;99.90
48744;DHT22;34538;48.836;9.174;2022-07-04T04:27:26;18.60;99.90
48744;DHT22;34538;48.836;9.174;2022-07-04T04:29:52;18.60;99.90
48744;DHT22;34538;48.836;9.174;2022-07-04T04:32:18;18.60;99.90
48744;DHT22;34538;48.836;9.174;2022-07-04T04:34:43;18.60;99.90
48744;DHT22;34538;48.836;9.174;2022-07-04T04:37:09;18.60;99.90
48744;DHT22;34538;48.836;9.174;2022-07-04T04:39:34;18.60;99.90
48744;DHT22;34538;48.836;9.174;2022-07-04T04:42:00;18.70;99.90
48744;DHT22;34538;48.836;9.174;2022-07-04T04:44:26;18.70;99.90
48744;DHT22;34538;48.836;9.174;2022-07-04T04:46:51;18.70;99.90
48744;DHT22;34538;48.836;9.174;2022-07-04T04:49:17;18.70;99.90
48744;DHT22;34538;48.836;9.174;2022-07-04T04:51:44;18.80;99.90
48744;DHT22;34538;48.836;9.174;2022-07-04T04:54:10;18.80;99.90
48744;DHT22;34538;48.836;9.174;2022-07-04T04:56:35;18.80;99.90
48744;DHT22;34538;48.836;9.174;2022-07-04T04:59:01;18.80;99.90
48744;DHT22;34538;48.836;9.174;2022-07-04T05:01:26;18.90;99.90
48744;DHT22;34538;48.836;9.174;2022-07-04T05:03:52;18.90;99.90
48744;DHT22;34538;48.836;9.174;2022-07-04T05:06:18;19.00;99.90
48744;DHT22;34538;48.836;9.174;2022-07-04T05:08:44;19.00;99.90
48744;DHT22;34538;48.836;9.174;2022-07-04T05:11:10;19.20;99.90
48744;DHT22;34538;48.836;9.174;2022-07-04T05:13:36;19.30;99.90
48744;DHT22;34538;48.836;9.174;2022-07-04T05:16:02;19.40;99.90
48744;DHT22;34538;48.836;9.174;2022-07-04T05:18:27;19.50;99.90
48744;DHT22;34538;48.836;9.174;2022-07-04T05:20:53;19.50;99.90
48744;DHT22;34538;48.836;9.174;2022-07-04T05:23:19;19.50;99.90
48744;DHT22;34538;48.836;9.174;2022-07-04T05:25:44;19.50;99.90
48744;DHT22;34538;48.836;9.174;2022-07-04T05:28:10;19.60;99.90
48744;DHT22;34538;48.836;9.174;2022-07-04T05:30:36;19.70;99.90
48744;DHT22;34538;48.836;9.174;2022-07-04T05:33:01;20.00;99.90
48744;DHT22;34538;48.836;9.174;2022-07-04T05:35:27;20.10;99.90
48744;DHT22;34538;48.836;9.174;2022-07-04T05:37:53;20.20;99.90
48744;DHT22;34538;48.836;9.174;2022-07-04T05:40:19;20.20;99.90
48744;DHT22;34538;48.836;9.174;2022-07-04T05:42:47;20.20;99.90
48744;DHT22;34538;48.836;9.174;2022-07-04T05:45:12;20.20;99.90
48744;DHT22;34538;48.836;9.174;2022-07-04T05:47:38;20.40;99.90
48744;DHT22;34538;48.836;9.174;2022-07-04T05:50:04;20.50;99.90
48744;DHT22;34538;48.836;9.174;2022-07-04T05:52:30;20.70;99.90
48744;DHT22;34538;48.836;9.174;2022-07-04T05:54:55;21.00;99.90
48744;DHT22;34538;48.836;9.174;2022-07-04T05:57:21;21.30;99.90
48744;DHT22;34538;48.836;9.174;2022-07-04T05:59:47;21.60;99.80
48744;DHT22;34538;48.836;9.174;2022-07-04T06:02:12;21.80;99.90
48744;DHT22;34538;48.836;9.174;2022-07-04T06:04:39;21.90;99.40
48744;DHT22;34538;48.836;9.174;2022-07-04T06:07:05;22.00;99.40
48744;DHT22;34538;48.836;9.174;2022-07-04T06:09:31;22.00;99.10
48744;DHT22;34538;48.836;9.174;2022-07-04T06:11:57;22.00;99.40
48744;DHT22;34538;48.836;9.174;2022-07-04T06:14:22;21.90;99.50
48744;DHT22;34538;48.836;9.174;2022-07-04T06:16:48;21.70;99.10
48744;DHT22;34538;48.836;9.174;2022-07-04T06:19:13;21.60;99.10
48744;DHT22;34538;48.836;9.174;2022-07-04T06:21:39;21.40;98.70
48744;DHT22;34538;48.836;9.174;2022-07-04T06:24:05;21.10;99.40
48744;DHT22;34538;48.836;9.174;2022-07-04T06:26:31;20.90;99.90
48744;DHT22;34538;48.836;9.174;2022-07-04T06:28:56;20.80;99.90
48744;DHT22;34538;48.836;9.174;2022-07-04T06:31:22;20.80;99.90
48744;DHT22;34538;48.836;9.174;2022-07-04T06:33:48;20.70;99.90
48744;DHT22;34538;48.836;9.174;2022-07-04T06:36:32;20.60;99.90
48744;DHT22;34538;48.836;9.174;2022-07-04T06:38:59;20.60;99.90
48744;DHT22;34538;48.836;9.174;2022-07-04T06:41:25;20.70;99.90
48744;DHT22;34538;48.836;9.174;2022-07-04T06:43:51;20.80;99.90
48744;DHT22;34538;48.836;9.174;2022-07-04T06:46:16;21.00;99.90
48744;DHT22;34538;48.836;9.174;2022-07-04T06:48:42;21.20;99.90
48744;DHT22;34538;48.836;9.174;2022-07-04T06:51:08;21.30;99.90
48744;DHT22;34538;48.836;9.174;2022-07-04T06:53:34;21.30;99.90
48744;DHT22;34538;48.836;9.174;2022-07-04T06:55:59;21.30;99.90
48744;DHT22;34538;48.836;9.174;2022-07-04T06:58:25;21.30;99.90
48744;DHT22;34538;48.836;9.174;2022-07-04T07:00:51;21.30;99.70
48744;DHT22;34538;48.836;9.174;2022-07-04T07:03:17;21.30;99.90
48744;DHT22;34538;48.836;9.174;2022-07-04T07:05:42;21.20;99.90
48744;DHT22;34538;48.836;9.174;2022-07-04T07:08:08;21.20;99.90
48744;DHT22;34538;48.836;9.174;2022-07-04T07:10:34;21.30;99.90
48744;DHT22;34538;48.836;9.174;2022-07-04T07:13:04;21.30;99.90
48744;DHT22;34538;48.836;9.174;2022-07-04T07:15:30;21.30;99.90
48744;DHT22;34538;48.836;9.174;2022-07-04T07:17:57;21.30;99.80
48744;DHT22;34538;48.836;9.174;2022-07-04T07:20:23;21.20;99.90
48744;DHT22;34538;48.836;9.174;2022-07-04T07:22:48;21.30;99.90
48744;DHT22;34538;48.836;9.174;2022-07-04T07:25:14;21.30;99.90
48744;DHT22;34538;48.836;9.174;2022-07-04T07:27:40;21.30;99.90
48744;DHT22;34538;48.836;9.174;2022-07-04T07:30:07;21.40;99.90
48744;DHT22;34538;48.836;9.174;2022-07-04T07:32:34;21.40;99.90
48744;DHT22;34538;48.836;9.174;2022-07-04T07:34:59;21.40;99.90
48744;DHT22;34538;48.836;9.174;2022-07-04T07:37:25;21.40;99.90
48744;DHT22;34538;48.836;9.174;2022-07-04T07:39:51;21.40;99.90
48744;DHT22;34538;48.836;9.174;2022-07-04T07:42:17;21.30;99.90
48744;DHT22;34538;48.836;9.174;2022-07-04T07:44:43;21.20;99.90
48744;DHT22;34538;48.836;9.174;2022-07-04T07:47:13;21.20;99.90
48744;DHT22;34538;48.836;9.174;2022-07-04T07:49:39;21.20;99.90
48744;DHT22;34538;48.836;9.174;2022-07-04T07:52:04;21.10;99.90
48744;DHT22;34538;48.836;9.174;2022-07-04T07:54:31;21.00;99.90
48744;DHT22;34538;48.836;9.174;2022-07-04T07:56:56;21.00;99.90
48744;DHT22;34538;48.836;9.174;2022-07-04T07:59:22;21.00;99.90
48744;DHT22;34538;48.836;9.174;2022-07-04T08:01:48;21.00;99.90
48744;DHT22;34538;48.836;9.174;2022-07-04T08:04:14;21.10;99.90
48744;DHT22;34538;48.836;9.174;2022-07-04T08:06:58;21.10;99.90
48744;DHT22;34538;48.836;9.174;2022-07-04T08:09:24;21.00;99.90
48744;DHT22;34538;48.836;9.174;2022-07-04T08:11:49;21.00;99.90
48744;DHT22;34538;48.836;9.174;2022-07-04T08:14:15;21.00;99.90
48744;DHT22;34538;48.836;9.174;2022-07-04T08:16:41;21.00;99.90
48744;DHT22;34538;48.836;9.174;2022-07-04T08:19:06;21.10;99.90
48744;DHT22;34538;48.836;9.174;2022-07-04T08:21:32;21.20;99.90
48744;DHT22;34538;48.836;9.174;2022-07-04T08:23:58;21.20;99.90
48744;DHT22;34538;48.836;9.174;2022-07-04T08:26:24;21.20;99.90
48744;DHT22;34538;48.836;9.174;2022-07-04T08:28:49;21.20;99.90
48744;DHT22;34538;48.836;9.174;2022-07-04T08:31:18;21.30;99.90
48744;DHT22;34538;48.836;9.174;2022-07-04T08:33:44;21.30;99.90
48744;DHT22;34538;48.836;9.174;2022-07-04T08:36:10;21.40;99.90
48744;DHT22;34538;48.836;9.174;2022-07-04T08:38:35;21.40;99.90
48744;DHT22;34538;48.836;9.174;2022-07-04T08:41:03;21.50;99.90
48744;DHT22;34538;48.836;9.174;2022-07-04T08:43:30;21.60;99.90
48744;DHT22;34538;48.836;9.174;2022-07-04T08:46:00;21.70;99.90
48744;DHT22;34538;48.836;9.174;2022-07-04T08:48:28;21.80;99.90
48744;DHT22;34538;48.836;9.174;2022-07-04T08:50:57;21.90;99.90
48744;DHT22;34538;48.836;9.174;2022-07-04T08:53:28;21.90;99.90
48744;DHT22;34538;48.836;9.174;2022-07-04T08:55:55;22.00;99.90
48744;DHT22;34538;48.836;9.174;2022-07-04T08:58:40;22.10;99.90
48744;DHT22;34538;48.836;9.174;2022-07-04T09:01:08;22.20;99.90
48744;DHT22;34538;48.836;9.174;2022-07-04T09:03:41;22.20;99.90
48744;DHT22;34538;48.836;9.174;2022-07-04T09:06:08;22.20;99.90
48744;DHT22;34538;48.836;9.174;2022-07-04T09:08:33;22.30;99.90
48744;DHT22;34538;48.836;9.174;2022-07-04T09:10:59;22.30;99.90
48744;DHT22;34538;48.836;9.174;2022-07-04T09:13:25;22.40;99.90
48744;DHT22;34538;48.836;9.174;2022-07-04T09:15:51;22.50;99.30
48744;DHT22;34538;48.836;9.174;2022-07-04T09:18:28;22.60;99.90
48744;DHT22;34538;48.836;9.174;2022-07-04T09:20:56;22.70;99.40
48744;DHT22;34538;48.836;9.174;2022-07-04T09:23:24;22.70;98.90
48744;DHT22;34538;48.836;9.174;2022-07-04T09:26:14;22.80;98.60
48744;DHT22;34538;48.836;9.174;2022-07-04T09:28:42;22.80;98.90
48744;DHT22;34538;48.836;9.174;2022-07-04T09:31:16;22.90;99.90
48744;DHT22;34538;48.836;9.174;2022-07-04T09:33:47;23.00;98.90
48744;DHT22;34538;48.836;9.174;2022-07-04T09:36:13;23.00;98.20
48744;DHT22;34538;48.836;9.174;2022-07-04T09:38:40;23.00;98.50
48744;DHT22;34538;48.836;9.174;2022-07-04T09:41:05;23.00;98.80
48744;DHT22;34538;48.836;9.174;2022-07-04T09:44:04;23.00;99.30
48744;DHT22;34538;48.836;9.174;2022-07-04T09:46:31;23.00;98.80
48744;DHT22;34538;48.836;9.174;2022-07-04T09:48:58;23.00;99.00
48744;DHT22;34538;48.836;9.174;2022-07-04T09:51:51;23.00;99.20
48744;DHT22;34538;48.836;9.174;2022-07-04T09:56:53;23.00;98.00
48744;DHT22;34538;48.836;9.174;2022-07-04T09:59:21;22.90;98.10
48744;DHT22;34538;48.836;9.174;2022-07-04T10:01:47;22.80;98.00
48744;DHT22;34538;48.836;9.174;2022-07-04T10:04:13;22.80;98.20
48744;DHT22;34538;48.836;9.174;2022-07-04T10:06:40;22.80;97.90
48744;DHT22;34538;48.836;9.174;2022-07-04T10:09:15;22.90;98.40
48744;DHT22;34538;48.836;9.174;2022-07-04T10:11:43;23.10;97.30
48744;DHT22;34538;48.836;9.174;2022-07-04T10:14:12;23.20;97.50
48744;DHT22;34538;48.836;9.174;2022-07-04T10:16:39;23.30;97.50
48744;DHT22;34538;48.836;9.174;2022-07-04T10:19:06;23.30;97.70
48744;DHT22;34538;48.836;9.174;2022-07-04T10:21:33;23.40;98.30
48744;DHT22;34538;48.836;9.174;2022-07-04T10:23:59;23.50;97.40
48744;DHT22;34538;48.836;9.174;2022-07-04T10:26:27;23.50;96.50
48744;DHT22;34538;48.836;9.174;2022-07-04T10:28:53;23.50;96.30
48744;DHT22;34538;48.836;9.174;2022-07-04T10:31:23;23.50;96.70
48744;DHT22;34538;48.836;9.174;2022-07-04T10:33:50;23.40;96.60
48744;DHT22;34538;48.836;9.174;2022-07-04T10:36:22;23.60;96.60
48744;DHT22;34538;48.836;9.174;2022-07-04T10:38:51;23.60;95.70
48744;DHT22;34538;48.836;9.174;2022-07-04T10:41:18;23.70;95.40
48744;DHT22;34538;48.836;9.174;2022-07-04T10:43:58;23.80;95.50
48744;DHT22;34538;48.836;9.174;2022-07-04T10:46:37;23.80;96.80
48744;DHT22;34538;48.836;9.174;2022-07-04T10:49:17;23.90;96.10
48744;DHT22;34538;48.836;9.174;2022-07-04T10:51:54;24.00;96.10
48744;DHT22;34538;48.836;9.174;2022-07-04T10:54:31;24.10;96.00
48744;DHT22;34538;48.836;9.174;2022-07-04T10:57:10;24.20;95.60
48744;DHT22;34538;48.836;9.174;2022-07-04T10:59:37;24.40;96.10
48744;DHT22;34538;48.836;9.174;2022-07-04T11:04:51;24.70;94.70
48744;DHT22;34538;48.836;9.174;2022-07-04T11:07:22;24.70;93.90
48744;DHT22;34538;48.836;9.174;2022-07-04T11:17:54;24.60;94.00
48744;DHT22;34538;48.836;9.174;2022-07-04T11:20:22;24.60;93.90
48744;DHT22;34538;48.836;9.174;2022-07-04T11:22:48;24.60;94.50
48744;DHT22;34538;48.836;9.174;2022-07-04T11:25:14;24.70;94.10
48744;DHT22;34538;48.836;9.174;2022-07-04T11:27:41;24.70;93.70
48744;DHT22;34538;48.836;9.174;2022-07-04T11:30:08;24.70;93.00
48744;DHT22;34538;48.836;9.174;2022-07-04T11:32:35;24.70;92.90
48744;DHT22;34538;48.836;9.174;2022-07-04T11:35:04;24.80;93.90
48744;DHT22;34538;48.836;9.174;2022-07-04T11:37:30;24.90;93.70
48744;DHT22;34538;48.836;9.174;2022-07-04T11:39:57;24.90;92.70
48744;DHT22;34538;48.836;9.174;2022-07-04T11:43:04;24.90;92.40
48744;DHT22;34538;48.836;9.174;2022-07-04T11:45:49;24.90;92.90
48744;DHT22;34538;48.836;9.174;2022-07-04T11:48:25;24.90;92.40
48744;DHT22;34538;48.836;9.174;2022-07-04T11:50:52;25.00;93.70
48744;DHT22;34538;48.836;9.174;2022-07-04T11:53:18;25.10;92.80
48744;DHT22;34538;48.836;9.174;2022-07-04T11:55:53;25.20;93.00
48744;DHT22;34538;48.836;9.174;2022-07-04T11:58:21;25.20;92.30
48744;DHT22;34538;48.836;9.174;2022-07-04T12:00:47;25.30;92.10
48744;DHT22;34538;48.836;9.174;2022-07-04T12:03:13;25.30;91.90
48744;DHT22;34538;48.836;9.174;2022-07-04T12:05:38;25.40;92.40
48744;DHT22;34538;48.836;9.174;2022-07-04T12:08:04;25.40;92.40
48744;DHT22;34538;48.836;9.174;2022-07-04T12:10:33;25.40;91.90
48744;DHT22;34538;48.836;9.174;2022-07-04T12:13:04;25.40;91.20
48744;DHT22;34538;48.836;9.174;2022-07-04T12:15:42;25.40;92.30
48744;DHT22;34538;48.836;9.174;2022-07-04T12:18:28;25.50;92.50
48744;DHT22;34538;48.836;9.174;2022-07-04T12:21:14;25.60;91.70
48744;DHT22;34538;48.836;9.174;2022-07-04T12:23:53;25.70;92.00
48744;DHT22;34538;48.836;9.174;2022-07-04T12:26:19;25.70;91.90
48744;DHT22;34538;48.836;9.174;2022-07-04T12:28:45;25.70;92.60
48744;DHT22;34538;48.836;9.174;2022-07-04T12:31:11;25.90;91.10
48744;DHT22;34538;48.836;9.174;2022-07-04T12:33:37;26.00;91.20
48744;DHT22;34538;48.836;9.174;2022-07-04T12:36:04;26.30;91.20
48744;DHT22;34538;48.836;9.174;2022-07-04T12:38:37;26.40;91.60
48744;DHT22;34538;48.836;9.174;2022-07-04T12:41:08;26.60;90.90
48744;DHT22;34538;48.836;9.174;2022-07-04T12:46:09;26.70;91.00
48744;DHT22;34538;48.836;9.174;2022-07-04T12:48:35;26.80;90.70
48744;DHT22;34538;48.836;9.174;2022-07-04T12:51:31;26.90;90.30
48744;DHT22;34538;48.836;9.174;2022-07-04T12:53:58;27.00;90.60
48744;DHT22;34538;48.836;9.174;2022-07-04T12:56:31;27.10;89.70
48744;DHT22;34538;48.836;9.174;2022-07-04T12:59:02;27.10;90.40
48744;DHT22;34538;48.836;9.174;2022-07-04T13:01:28;27.20;90.40
48744;DHT22;34538;48.836;9.174;2022-07-04T13:03:54;27.50;90.10
48744;DHT22;34538;48.836;9.174;2022-07-04T13:06:20;27.70;90.10
48744;DHT22;34538;48.836;9.174;2022-07-04T13:08:46;27.80;90.10
48744;DHT22;34538;48.836;9.174;2022-07-04T13:11:12;27.80;89.60
48744;DHT22;34538;48.836;9.174;2022-07-04T13:13:56;27.70;89.20
48744;DHT22;34538;48.836;9.174;2022-07-04T13:16:22;27.50;88.60
48744;DHT22;34538;48.836;9.174;2022-07-04T13:18:48;27.30;88.90
48744;DHT22;34538;48.836;9.174;2022-07-04T13:21:14;27.10;89.30
48744;DHT22;34538;48.836;9.174;2022-07-04T13:23:39;27.10;90.00
48744;DHT22;34538;48.836;9.174;2022-07-04T13:26:05;27.00;89.80
48744;DHT22;34538;48.836;9.174;2022-07-04T13:28:31;27.00;90.30
48744;DHT22;34538;48.836;9.174;2022-07-04T13:30:56;26.90;90.30
48744;DHT22;34538;48.836;9.174;2022-07-04T13:33:22;26.80;90.30
48744;DHT22;34538;48.836;9.174;2022-07-04T13:35:48;26.70;90.80
48744;DHT22;34538;48.836;9.174;2022-07-04T13:38:14;26.60;90.80
48744;DHT22;34538;48.836;9.174;2022-07-04T13:40:42;26.50;90.70
48744;DHT22;34538;48.836;9.174;2022-07-04T13:43:09;26.40;90.40
48744;DHT22;34538;48.836;9.174;2022-07-04T13:45:38;26.20;90.50
48744;DHT22;34538;48.836;9.174;2022-07-04T13:48:06;26.00;91.00
48744;DHT22;34538;48.836;9.174;2022-07-04T13:50:32;25.90;91.60
48744;DHT22;34538;48.836;9.174;2022-07-04T13:52:58;25.80;91.70
48744;DHT22;34538;48.836;9.174;2022-07-04T13:55:23;25.80;92.20
48744;DHT22;34538;48.836;9.174;2022-07-04T13:57:49;26.00;92.10
48744;DHT22;34538;48.836;9.174;2022-07-04T14:00:15;26.10;91.00
48744;DHT22;34538;48.836;9.174;2022-07-04T14:02:41;26.20;91.50
48744;DHT22;34538;48.836;9.174;2022-07-04T14:05:07;26.30;91.10
48744;DHT22;34538;48.836;9.174;2022-07-04T14:07:33;26.40;90.50
48744;DHT22;34538;48.836;9.174;2022-07-04T14:10:01;26.40;90.50
48744;DHT22;34538;48.836;9.174;2022-07-04T14:12:27;26.40;91.00
48744;DHT22;34538;48.836;9.174;2022-07-04T14:14:53;26.50;91.10
48744;DHT22;34538;48.836;9.174;2022-07-04T14:17:18;26.60;91.00
48744;DHT22;34538;48.836;9.174;2022-07-04T14:19:44;26.60;91.50
48744;DHT22;34538;48.836;9.174;2022-07-04T14:22:10;26.70;91.20
48744;DHT22;34538;48.836;9.174;2022-07-04T14:24:35;26.80;91.10
48744;DHT22;34538;48.836;9.174;2022-07-04T14:27:01;26.90;91.00
48744;DHT22;34538;48.836;9.174;2022-07-04T14:29:27;27.00;90.70
48744;DHT22;34538;48.836;9.174;2022-07-04T14:31:53;27.10;90.70
48744;DHT22;34538;48.836;9.174;2022-07-04T14:34:19;27.10;90.50
48744;DHT22;34538;48.836;9.174;2022-07-04T14:36:45;27.00;89.70
48744;DHT22;34538;48.836;9.174;2022-07-04T14:39:10;26.90;89.80
48744;DHT22;34538;48.836;9.174;2022-07-04T14:41:36;26.80;90.40
48744;DHT22;34538;48.836;9.174;2022-07-04T14:44:02;26.70;90.60
48744;DHT22;34538;48.836;9.174;2022-07-04T14:46:28;26.60;90.50
48744;DHT22;34538;48.836;9.174;2022-07-04T14:48:55;26.50;91.00
48744;DHT22;34538;48.836;9.174;2022-07-04T14:51:21;26.40;90.50
48744;DHT22;34538;48.836;9.174;2022-07-04T14:53:46;26.40;91.30
48744;DHT22;34538;48.836;9.174;2022-07-04T14:56:12;26.50;90.90
48744;DHT22;34538;48.836;9.174;2022-07-04T14:58:38;26.70;90.30
48744;DHT22;34538;48.836;9.174;2022-07-04T15:01:03;26.70;90.10
48744;DHT22;34538;48.836;9.174;2022-07-04T15:03:29;26.70;90.60
48744;DHT22;34538;48.836;9.174;2022-07-04T15:05:55;26.80;90.40
48744;DHT22;34538;48.836;9.174;2022-07-04T15:08:20;26.90;90.70
48744;DHT22;34538;48.836;9.174;2022-07-04T15:10:46;27.00;89.00
48744;DHT22;34538;48.836;9.174;2022-07-04T15:13:12;27.10;88.80
48744;DHT22;34538;48.836;9.174;2022-07-04T15:15:39;27.20;89.70
48744;DHT22;34538;48.836;9.174;2022-07-04T15:18:05;27.10;89.90
48744;DHT22;34538;48.836;9.174;2022-07-04T15:20:31;27.00;89.20
48744;DHT22;34538;48.836;9.174;2022-07-04T15:23:15;26.90;90.00
48744;DHT22;34538;48.836;9.174;2022-07-04T15:26:00;26.90;89.10
48744;DHT22;34538;48.836;9.174;2022-07-04T15:28:25;26.80;90.10
48744;DHT22;34538;48.836;9.174;2022-07-04T15:30:51;26.90;90.10
48744;DHT22;34538;48.836;9.174;2022-07-04T15:33:17;27.10;89.70
48744;DHT22;34538;48.836;9.174;2022-07-04T15:35:43;27.30;88.70
48744;DHT22;34538;48.836;9.174;2022-07-04T15:38:09;27.60;87.50
48744;DHT22;34538;48.836;9.174;2022-07-04T15:40:36;27.80;86.30
48744;DHT22;34538;48.836;9.174;2022-07-04T15:43:01;28.00;86.30
48744;DHT22;34538;48.836;9.174;2022-07-04T15:45:27;28.20;86.50
48744;DHT22;34538;48.836;9.174;2022-07-04T15:47:53;28.30;84.50